sensor_id;sensor_type;location;lat;lon;timestamp;pressure;altitude;pressure_sealevel;temperature;humidity
46638;BME280;32365;46.938;7.390;2023-05-03T05:06:14;95774.53;;;5.91;100.00
46638;BME280;32365;46.938;7.390;2023-05-03T05:08:40;95768.41;;;5.92;100.00
46638;BME280;32365;46.938;7.390;2023-05-03T05:11:07;95780.94;;;6.01;100.00
46638;BME280;32365;46.938;7.390;2023-05-03T05:13:34;95776.69;;;6.15;100.00
46638;BME280;32365;46.938;7.390;2023-05-03T05:16:00;95771.63;;;6.29;100.00
46638;BME280;32365;46.938;7.390;2023-05-03T05:18:27;95774.59;;;6.32;100.00
46638;BME280;32365;46.938;7.390;2023-05-03T05:20:53;95773.00;;;6.31;100.00
46638;BME280;32365;46.938;7.390;2023-05-03T05:23:21;95774.25;;;6.42;99.92
46638;BME280;32365;46.938;7.390;2023-05-03T05:25:47;95779.25;;;6.57;99.12
46638;BME280;32365;46.938;7.390;2023-05-03T05:28:14;95776.13;;;6.69;99.09
46638;BME280;32365;46.938;7.390;2023-05-03T05:30:40;95774.94;;;6.71;98.14
46638;BME280;32365;46.938;7.390;2023-05-03T05:33:07;95779.91;;;6.86;97.58
46638;BME280;32365;46.938;7.390;2023-05-03T05:35:33;95784.09;;;6.94;97.39
46638;BME280;32365;46.938;7.390;2023-05-03T05:38:00;95786.31;;;6.97;96.96
46638;BME280;32365;46.938;7.390;2023-05-03T05:40:28;95783.13;;;7.02;97.23
46638;BME280;32365;46.938;7.390;2023-05-03T05:42:54;95781.38;;;7.09;96.97
46638;BME280;32365;46.938;7.390;2023-05-03T05:45:21;95781.38;;;7.02;96.17
46638;BME280;32365;46.938;7.390;2023-05-03T05:47:47;95779.81;;;7.15;97.45
46638;BME280;32365;46.938;7.390;2023-05-03T05:50:15;95770.31;;;7.29;96.71
46638;BME280;32365;46.938;7.390;2023-05-03T05:52:41;95774.88;;;7.40;94.86
46638;BME280;32365;46.938;7.390;2023-05-03T05:55:08;95773.09;;;7.54;94.97
46638;BME280;32365;46.938;7.390;2023-05-03T05:57:39;95772.31;;;7.60;94.21
46638;BME280;32365;46.938;7.390;2023-05-03T06:00:06;95778.25;;;7.74;92.88
46638;BME280;32365;46.938;7.390;2023-05-03T06:02:39;95779.44;;;7.78;92.43
46638;BME280;32365;46.938;7.390;2023-05-03T06:05:06;95772.69;;;7.91;93.10
46638;BME280;32365;46.938;7.390;2023-05-03T06:07:33;95781.78;;;8.07;92.90
46638;BME280;32365;46.938;7.390;2023-05-03T06:09:59;95774.16;;;8.32;92.63
46638;BME280;32365;46.938;7.390;2023-05-03T06:12:26;95779.91;;;8.47;91.55
46638;BME280;32365;46.938;7.390;2023-05-03T06:14:54;95771.13;;;8.62;91.33
46638;BME280;32365;46.938;7.390;2023-05-03T06:17:20;95776.94;;;8.51;91.35
46638;BME280;32365;46.938;7.390;2023-05-03T06:19:47;95769.50;;;8.74;90.39
46638;BME280;32365;46.938;7.390;2023-05-03T06:22:14;95771.22;;;8.81;88.56
46638;BME280;32365;46.938;7.390;2023-05-03T06:24:40;95771.03;;;8.82;89.11
46638;BME280;32365;46.938;7.390;2023-05-03T06:27:07;95770.06;;;9.15;88.11
46638;BME280;32365;46.938;7.390;2023-05-03T06:29:33;95767.75;;;9.32;87.49
46638;BME280;32365;46.938;7.390;2023-05-03T06:32:01;95764.19;;;9.33;86.90
46638;BME280;32365;46.938;7.390;2023-05-03T06:34:27;95765.97;;;9.33;85.93
46638;BME280;32365;46.938;7.390;2023-05-03T06:36:54;95767.34;;;9.61;85.12
46638;BME280;32365;46.938;7.390;2023-05-03T06:39:20;95755.69;;;9.77;84.02
46638;BME280;32365;46.938;7.390;2023-05-03T06:41:47;95747.44;;;9.86;83.25
46638;BME280;32365;46.938;7.390;2023-05-03T06:44:13;95752.13;;;9.96;82.53
46638;BME280;32365;46.938;7.390;2023-05-03T06:46:40;95749.59;;;10.08;81.52
46638;BME280;32365;46.938;7.390;2023-05-03T06:49:08;95747.19;;;10.13;80.19
46638;BME280;32365;46.938;7.390;2023-05-03T06:51:34;95748.25;;;10.24;79.31
46638;BME280;32365;46.938;7.390;2023-05-03T06:54:01;95747.97;;;10.14;81.61
46638;BME280;32365;46.938;7.390;2023-05-03T06:56:31;95745.13;;;10.41;79.38
46638;BME280;32365;46.938;7.390;2023-05-03T06:58:58;95748.59;;;10.65;79.29
46638;BME280;32365;46.938;7.390;2023-05-03T07:01:24;95736.81;;;10.69;80.97
46638;BME280;32365;46.938;7.390;2023-05-03T07:03:51;95749.00;;;11.11;79.53
46638;BME280;32365;46.938;7.390;2023-05-03T07:06:18;95739.25;;;11.49;77.54
46638;BME280;32365;46.938;7.390;2023-05-03T07:08:47;95731.22;;;11.27;79.44
46638;BME280;32365;46.938;7.390;2023-05-03T07:11:14;95729.56;;;11.56;78.17
46638;BME280;32365;46.938;7.390;2023-05-03T07:13:40;95722.34;;;11.70;76.78
46638;BME280;32365;46.938;7.390;2023-05-03T07:16:06;95725.19;;;11.68;76.98
46638;BME280;32365;46.938;7.390;2023-05-03T07:18:33;95722.81;;;12.55;77.37
46638;BME280;32365;46.938;7.390;2023-05-03T07:21:00;95722.31;;;12.70;73.54
46638;BME280;32365;46.938;7.390;2023-05-03T07:23:31;95712.56;;;12.77;73.74
46638;BME280;32365;46.938;7.390;2023-05-03T07:25:57;95706.00;;;13.38;71.32
46638;BME280;32365;46.938;7.390;2023-05-03T07:28:24;95700.94;;;12.97;70.86
46638;BME280;32365;46.938;7.390;2023-05-03T07:30:50;95701.34;;;13.06;71.71
46638;BME280;32365;46.938;7.390;2023-05-03T07:33:17;95704.97;;;13.73;73.49
46638;BME280;32365;46.938;7.390;2023-05-03T07:35:44;95696.97;;;13.58;71.89
46638;BME280;32365;46.938;7.390;2023-05-03T07:38:11;95686.91;;;13.83;69.51
46638;BME280;32365;46.938;7.390;2023-05-03T07:40:39;95681.56;;;13.95;68.69
46638;BME280;32365;46.938;7.390;2023-05-03T07:43:06;95673.22;;;14.38;67.10
46638;BME280;32365;46.938;7.390;2023-05-03T07:45:34;95678.63;;;14.09;66.86
46638;BME280;32365;46.938;7.390;2023-05-03T07:48:00;95673.13;;;14.27;67.79
46638;BME280;32365;46.938;7.390;2023-05-03T07:50:28;95673.91;;;14.28;67.37
46638;BME280;32365;46.938;7.390;2023-05-03T07:52:55;95665.72;;;13.97;68.42
46638;BME280;32365;46.938;7.390;2023-05-03T07:55:22;95666.22;;;13.94;68.13
46638;BME280;32365;46.938;7.390;2023-05-03T07:57:50;95657.84;;;14.36;66.84
46638;BME280;32365;46.938;7.390;2023-05-03T08:00:22;95662.84;;;13.54;69.65
46638;BME280;32365;46.938;7.390;2023-05-03T08:02:49;95657.63;;;13.93;67.43
46638;BME280;32365;46.938;7.390;2023-05-03T08:05:16;95658.69;;;14.42;65.33
46638;BME280;32365;46.938;7.390;2023-05-03T08:07:42;95654.41;;;14.30;64.51
46638;BME280;32365;46.938;7.390;2023-05-03T08:10:10;95654.25;;;14.42;67.69
46638;BME280;32365;46.938;7.390;2023-05-03T08:12:37;95658.16;;;13.73;66.84
46638;BME280;32365;46.938;7.390;2023-05-03T08:15:06;95656.22;;;13.85;67.75
46638;BME280;32365;46.938;7.390;2023-05-03T08:17:39;95657.78;;;15.51;64.69
46638;BME280;32365;46.938;7.390;2023-05-03T08:20:07;95660.94;;;15.58;61.12
46638;BME280;32365;46.938;7.390;2023-05-03T08:22:33;95661.97;;;14.82;64.48
46638;BME280;32365;46.938;7.390;2023-05-03T08:25:02;95653.31;;;15.94;60.70
46638;BME280;32365;46.938;7.390;2023-05-03T08:27:29;95659.84;;;16.86;57.90
46638;BME280;32365;46.938;7.390;2023-05-03T08:29:55;95646.16;;;17.98;53.35
46638;BME280;32365;46.938;7.390;2023-05-03T08:32:23;95654.88;;;16.85;54.75
46638;BME280;32365;46.938;7.390;2023-05-03T08:34:51;95649.81;;;19.80;48.05
46638;BME280;32365;46.938;7.390;2023-05-03T08:37:17;95646.28;;;18.27;51.60
46638;BME280;32365;46.938;7.390;2023-05-03T08:39:44;95644.69;;;18.71;49.19
46638;BME280;32365;46.938;7.390;2023-05-03T08:42:11;95652.28;;;19.42;49.12
46638;BME280;32365;46.938;7.390;2023-05-03T08:44:43;95645.22;;;17.27;52.92
46638;BME280;32365;46.938;7.390;2023-05-03T08:47:13;95645.94;;;19.73;49.56
46638;BME280;32365;46.938;7.390;2023-05-03T08:49:42;95651.44;;;18.83;49.06
46638;BME280;32365;46.938;7.390;2023-05-03T08:52:09;95646.53;;;17.39;53.43
46638;BME280;32365;46.938;7.390;2023-05-03T08:54:36;95637.75;;;18.91;50.06
46638;BME280;32365;46.938;7.390;2023-05-03T08:57:02;95645.66;;;18.41;48.39
46638;BME280;32365;46.938;7.390;2023-05-03T08:59:29;95638.16;;;18.69;51.26
46638;BME280;32365;46.938;7.390;2023-05-03T09:01:55;95647.94;;;17.92;52.10
46638;BME280;32365;46.938;7.390;2023-05-03T09:04:31;95639.22;;;18.68;49.93
46638;BME280;32365;46.938;7.390;2023-05-03T09:07:08;95647.88;;;21.25;43.63
46638;BME280;32365;46.938;7.390;2023-05-03T09:09:35;95641.09;;;21.05;44.44
46638;BME280;32365;46.938;7.390;2023-05-03T09:12:02;95644.72;;;19.06;46.55
46638;BME280;32365;46.938;7.390;2023-05-03T09:14:28;95652.56;;;18.26;49.53
46638;BME280;32365;46.938;7.390;2023-05-03T09:17:12;95644.72;;;20.13;46.16
46638;BME280;32365;46.938;7.390;2023-05-03T09:19:48;95650.50;;;19.37;48.16
46638;BME280;32365;46.938;7.390;2023-05-03T09:22:17;95658.78;;;19.20;47.47
46638;BME280;32365;46.938;7.390;2023-05-03T09:24:50;95654.69;;;19.38;47.21
46638;BME280;32365;46.938;7.390;2023-05-03T09:27:17;95648.31;;;20.42;44.30
46638;BME280;32365;46.938;7.390;2023-05-03T09:29:45;95647.50;;;20.22;46.36
46638;BME280;32365;46.938;7.390;2023-05-03T09:32:12;95657.81;;;22.45;42.08
46638;BME280;32365;46.938;7.390;2023-05-03T09:34:38;95662.88;;;21.58;43.67
46638;BME280;32365;46.938;7.390;2023-05-03T09:37:05;95659.56;;;22.50;41.25
46638;BME280;32365;46.938;7.390;2023-05-03T09:39:33;95653.31;;;22.68;40.35
46638;BME280;32365;46.938;7.390;2023-05-03T09:42:09;95667.03;;;20.98;43.64
46638;BME280;32365;46.938;7.390;2023-05-03T09:44:41;95664.63;;;21.15;40.91
46638;BME280;32365;46.938;7.390;2023-05-03T09:47:09;95662.59;;;22.29;38.63
46638;BME280;32365;46.938;7.390;2023-05-03T09:49:36;95659.06;;;22.84;38.58
46638;BME280;32365;46.938;7.390;2023-05-03T09:52:03;95658.75;;;23.31;37.73
46638;BME280;32365;46.938;7.390;2023-05-03T09:54:30;95658.91;;;21.60;42.08
46638;BME280;32365;46.938;7.390;2023-05-03T09:56:59;95660.72;;;21.60;41.40
46638;BME280;32365;46.938;7.390;2023-05-03T09:59:26;95658.66;;;22.91;38.07
46638;BME280;32365;46.938;7.390;2023-05-03T10:01:56;95659.75;;;20.32;41.67
46638;BME280;32365;46.938;7.390;2023-05-03T10:04:24;95665.25;;;20.11;43.60
46638;BME280;32365;46.938;7.390;2023-05-03T10:06:54;95653.44;;;21.84;41.31
46638;BME280;32365;46.938;7.390;2023-05-03T10:09:30;95667.09;;;21.73;39.57
46638;BME280;32365;46.938;7.390;2023-05-03T10:11:59;95660.66;;;21.79;41.67
46638;BME280;32365;46.938;7.390;2023-05-03T10:14:27;95654.63;;;22.94;37.83
46638;BME280;32365;46.938;7.390;2023-05-03T10:16:58;95656.84;;;23.00;38.90
46638;BME280;32365;46.938;7.390;2023-05-03T10:19:28;95655.53;;;22.89;38.08
46638;BME280;32365;46.938;7.390;2023-05-03T10:22:02;95666.13;;;22.10;42.77
46638;BME280;32365;46.938;7.390;2023-05-03T10:24:28;95662.88;;;23.46;36.96
46638;BME280;32365;46.938;7.390;2023-05-03T10:26:55;95658.91;;;23.98;36.37
46638;BME280;32365;46.938;7.390;2023-05-03T10:29:46;95667.38;;;22.27;40.37
46638;BME280;32365;46.938;7.390;2023-05-03T10:32:34;95666.09;;;20.07;43.24
46638;BME280;32365;46.938;7.390;2023-05-03T10:35:06;95664.31;;;20.84;41.65
46638;BME280;32365;46.938;7.390;2023-05-03T10:37:33;95661.84;;;19.87;43.32
46638;BME280;32365;46.938;7.390;2023-05-03T10:40:09;95653.44;;;20.90;42.72
46638;BME280;32365;46.938;7.390;2023-05-03T10:42:37;95650.63;;;21.01;43.46
46638;BME280;32365;46.938;7.390;2023-05-03T10:45:06;95662.28;;;21.14;40.85
46638;BME280;32365;46.938;7.390;2023-05-03T10:47:34;95653.47;;;23.09;36.71
46638;BME280;32365;46.938;7.390;2023-05-03T10:50:28;95654.47;;;23.85;37.50
46638;BME280;32365;46.938;7.390;2023-05-03T10:52:54;95654.06;;;22.32;38.41
46638;BME280;32365;46.938;7.390;2023-05-03T10:55:22;95653.88;;;22.56;38.32
46638;BME280;32365;46.938;7.390;2023-05-03T10:57:53;95654.50;;;21.70;40.75
46638;BME280;32365;46.938;7.390;2023-05-03T11:00:27;95656.34;;;23.84;36.30
46638;BME280;32365;46.938;7.390;2023-05-03T11:03:21;95650.34;;;23.29;37.34
46638;BME280;32365;46.938;7.390;2023-05-03T11:05:51;95647.41;;;23.08;39.47
46638;BME280;32365;46.938;7.390;2023-05-03T11:08:20;95652.91;;;21.55;41.93
46638;BME280;32365;46.938;7.390;2023-05-03T11:10:48;95648.47;;;21.69;42.13
46638;BME280;32365;46.938;7.390;2023-05-03T11:13:15;95643.31;;;21.31;40.50
46638;BME280;32365;46.938;7.390;2023-05-03T11:15:43;95643.41;;;22.01;39.33
46638;BME280;32365;46.938;7.390;2023-05-03T11:20:46;95633.94;;;22.36;35.03
46638;BME280;32365;46.938;7.390;2023-05-03T11:23:13;95633.28;;;22.44;36.69
46638;BME280;32365;46.938;7.390;2023-05-03T11:25:39;95639.78;;;22.61;37.87
46638;BME280;32365;46.938;7.390;2023-05-03T11:28:06;95630.41;;;20.63;38.08
46638;BME280;32365;46.938;7.390;2023-05-03T11:30:33;95638.53;;;21.33;36.33
46638;BME280;32365;46.938;7.390;2023-05-03T11:33:02;95636.47;;;21.91;38.57
46638;BME280;32365;46.938;7.390;2023-05-03T11:35:29;95636.47;;;20.44;39.06
46638;BME280;32365;46.938;7.390;2023-05-03T11:37:56;95635.41;;;21.92;40.78
46638;BME280;32365;46.938;7.390;2023-05-03T11:40:22;95632.44;;;22.21;35.93
46638;BME280;32365;46.938;7.390;2023-05-03T11:42:50;95627.56;;;21.59;36.44
46638;BME280;32365;46.938;7.390;2023-05-03T11:45:17;95624.56;;;20.85;40.22
46638;BME280;32365;46.938;7.390;2023-05-03T11:47:45;95630.91;;;21.31;38.04
46638;BME280;32365;46.938;7.390;2023-05-03T11:50:13;95630.63;;;20.86;41.10
46638;BME280;32365;46.938;7.390;2023-05-03T11:52:40;95617.38;;;21.38;38.23
46638;BME280;32365;46.938;7.390;2023-05-03T11:55:07;95625.91;;;21.91;36.24
46638;BME280;32365;46.938;7.390;2023-05-03T11:57:35;95625.56;;;22.34;36.43
46638;BME280;32365;46.938;7.390;2023-05-03T12:00:12;95623.56;;;22.03;37.69
46638;BME280;32365;46.938;7.390;2023-05-03T12:02:41;95622.63;;;22.50;35.19
46638;BME280;32365;46.938;7.390;2023-05-03T12:05:08;95624.31;;;22.91;36.46
46638;BME280;32365;46.938;7.390;2023-05-03T12:07:36;95616.84;;;23.39;35.24
46638;BME280;32365;46.938;7.390;2023-05-03T12:10:14;95608.44;;;22.82;34.39
46638;BME280;32365;46.938;7.390;2023-05-03T12:12:53;95612.97;;;22.31;34.42
46638;BME280;32365;46.938;7.390;2023-05-03T12:15:30;95624.56;;;23.26;35.35
46638;BME280;32365;46.938;7.390;2023-05-03T12:17:58;95610.41;;;22.77;34.01
46638;BME280;32365;46.938;7.390;2023-05-03T12:20:26;95613.63;;;21.72;37.14
46638;BME280;32365;46.938;7.390;2023-05-03T12:22:58;95613.06;;;22.26;34.49
46638;BME280;32365;46.938;7.390;2023-05-03T12:25:25;95600.13;;;22.16;35.45
46638;BME280;32365;46.938;7.390;2023-05-03T12:27:53;95614.69;;;21.71;37.22
46638;BME280;32365;46.938;7.390;2023-05-03T12:30:21;95598.72;;;22.18;33.98
46638;BME280;32365;46.938;7.390;2023-05-03T12:32:48;95596.38;;;22.30;34.77
46638;BME280;32365;46.938;7.390;2023-05-03T12:35:16;95595.97;;;23.05;34.14
46638;BME280;32365;46.938;7.390;2023-05-03T12:37:43;95596.41;;;22.76;32.61
46638;BME280;32365;46.938;7.390;2023-05-03T12:40:12;95596.22;;;21.99;34.69
46638;BME280;32365;46.938;7.390;2023-05-03T12:42:39;95593.00;;;22.75;33.42
46638;BME280;32365;46.938;7.390;2023-05-03T12:45:06;95588.91;;;22.47;34.56
46638;BME280;32365;46.938;7.390;2023-05-03T12:47:33;95580.91;;;22.74;33.42
46638;BME280;32365;46.938;7.390;2023-05-03T12:50:01;95580.41;;;22.72;34.23
46638;BME280;32365;46.938;7.390;2023-05-03T12:52:28;95588.00;;;22.51;33.20
46638;BME280;32365;46.938;7.390;2023-05-03T12:54:55;95582.91;;;23.00;34.13
46638;BME280;32365;46.938;7.390;2023-05-03T12:57:24;95576.94;;;22.86;36.60
46638;BME280;32365;46.938;7.390;2023-05-03T12:59:50;95582.56;;;22.48;37.26
46638;BME280;32365;46.938;7.390;2023-05-03T13:02:18;95581.19;;;22.96;34.96
46638;BME280;32365;46.938;7.390;2023-05-03T13:04:46;95572.19;;;23.28;34.74
46638;BME280;32365;46.938;7.390;2023-05-03T13:07:14;95566.34;;;22.40;33.67
46638;BME280;32365;46.938;7.390;2023-05-03T13:09:42;95566.91;;;23.28;34.48
46638;BME280;32365;46.938;7.390;2023-05-03T13:12:09;95565.63;;;24.77;34.03
46638;BME280;32365;46.938;7.390;2023-05-03T13:14:38;95566.31;;;22.77;35.65
46638;BME280;32365;46.938;7.390;2023-05-03T13:17:05;95561.28;;;22.44;36.57
46638;BME280;32365;46.938;7.390;2023-05-03T13:19:31;95560.78;;;22.65;35.01
46638;BME280;32365;46.938;7.390;2023-05-03T13:21:58;95555.06;;;22.94;36.56
46638;BME280;32365;46.938;7.390;2023-05-03T13:24:24;95561.06;;;23.40;35.62
46638;BME280;32365;46.938;7.390;2023-05-03T13:26:51;95560.44;;;24.89;32.30
46638;BME280;32365;46.938;7.390;2023-05-03T13:29:17;95554.09;;;24.81;34.63
46638;BME280;32365;46.938;7.390;2023-05-03T13:31:45;95554.25;;;25.24;31.31
46638;BME280;32365;46.938;7.390;2023-05-03T13:34:12;95549.59;;;25.20;31.35
46638;BME280;32365;46.938;7.390;2023-05-03T13:36:38;95555.94;;;24.54;35.13
46638;BME280;32365;46.938;7.390;2023-05-03T13:39:05;95549.56;;;24.64;32.47
46638;BME280;32365;46.938;7.390;2023-05-03T13:41:33;95553.91;;;23.41;35.05
46638;BME280;32365;46.938;7.390;2023-05-03T13:44:01;95542.03;;;23.20;36.89
46638;BME280;32365;46.938;7.390;2023-05-03T13:46:27;95536.16;;;22.10;37.72
46638;BME280;32365;46.938;7.390;2023-05-03T13:48:55;95537.28;;;24.42;35.49
46638;BME280;32365;46.938;7.390;2023-05-03T13:51:22;95536.44;;;23.62;36.15
46638;BME280;32365;46.938;7.390;2023-05-03T13:53:49;95534.97;;;23.39;36.41
46638;BME280;32365;46.938;7.390;2023-05-03T13:56:16;95534.19;;;24.22;36.52
46638;BME280;32365;46.938;7.390;2023-05-03T13:58:42;95526.03;;;23.83;37.07
46638;BME280;32365;46.938;7.390;2023-05-03T14:01:09;95517.53;;;24.39;35.00
46638;BME280;32365;46.938;7.390;2023-05-03T14:03:35;95531.69;;;24.08;34.71
46638;BME280;32365;46.938;7.390;2023-05-03T14:06:03;95520.28;;;23.73;35.20
46638;BME280;32365;46.938;7.390;2023-05-03T14:08:32;95519.19;;;23.74;33.41
46638;BME280;32365;46.938;7.390;2023-05-03T14:10:58;95512.84;;;24.36;33.40
46638;BME280;32365;46.938;7.390;2023-05-03T14:13:26;95509.59;;;24.13;33.48
46638;BME280;32365;46.938;7.390;2023-05-03T14:15:53;95507.03;;;23.15;34.67
46638;BME280;32365;46.938;7.390;2023-05-03T14:18:20;95511.03;;;22.72;36.41
46638;BME280;32365;46.938;7.390;2023-05-03T14:20:47;95503.94;;;24.76;32.16
46638;BME280;32365;46.938;7.390;2023-05-03T14:23:16;95494.00;;;25.93;30.68
46638;BME280;32365;46.938;7.390;2023-05-03T14:25:42;95499.66;;;25.01;30.85
46638;BME280;32365;46.938;7.390;2023-05-03T14:28:08;95484.88;;;22.84;34.34
46638;BME280;32365;46.938;7.390;2023-05-03T14:30:35;95488.00;;;22.64;35.74
46638;BME280;32365;46.938;7.390;2023-05-03T14:33:01;95486.28;;;23.22;36.07
46638;BME280;32365;46.938;7.390;2023-05-03T14:35:28;95483.31;;;22.92;35.59
46638;BME280;32365;46.938;7.390;2023-05-03T14:37:54;95482.06;;;24.32;34.62
46638;BME280;32365;46.938;7.390;2023-05-03T14:40:22;95476.25;;;24.56;34.00
46638;BME280;32365;46.938;7.390;2023-05-03T14:42:49;95478.28;;;23.80;34.98
46638;BME280;32365;46.938;7.390;2023-05-03T14:45:15;95486.56;;;24.31;36.25
46638;BME280;32365;46.938;7.390;2023-05-03T14:47:42;95479.16;;;25.58;33.02
46638;BME280;32365;46.938;7.390;2023-05-03T14:50:09;95486.97;;;24.77;33.95
46638;BME280;32365;46.938;7.390;2023-05-03T14:52:35;95485.00;;;24.39;33.70
46638;BME280;32365;46.938;7.390;2023-05-03T14:55:03;95471.56;;;25.09;32.61
46638;BME280;32365;46.938;7.390;2023-05-03T14:57:32;95486.38;;;23.83;35.36
46638;BME280;32365;46.938;7.390;2023-05-03T14:59:59;95490.94;;;24.27;35.75
46638;BME280;32365;46.938;7.390;2023-05-03T15:02:27;95489.19;;;23.87;36.70
46638;BME280;32365;46.938;7.390;2023-05-03T15:04:53;95482.00;;;24.76;34.33
46638;BME280;32365;46.938;7.390;2023-05-03T15:07:19;95483.66;;;23.40;36.67
46638;BME280;32365;46.938;7.390;2023-05-03T15:09:46;95473.94;;;23.66;36.89
46638;BME280;32365;46.938;7.390;2023-05-03T15:12:12;95475.50;;;26.05;33.35
46638;BME280;32365;46.938;7.390;2023-05-03T15:14:40;95469.31;;;26.22;32.37
46638;BME280;32365;46.938;7.390;2023-05-03T15:17:07;95474.41;;;26.61;30.72
46638;BME280;32365;46.938;7.390;2023-05-03T15:19:33;95478.63;;;25.05;33.25
46638;BME280;32365;46.938;7.390;2023-05-03T15:22:00;95481.53;;;23.50;35.27
46638;BME280;32365;46.938;7.390;2023-05-03T15:24:27;95484.91;;;25.21;32.71
46638;BME280;32365;46.938;7.390;2023-05-03T15:26:53;95493.66;;;23.60;35.30
46638;BME280;32365;46.938;7.390;2023-05-03T15:29:20;95482.19;;;23.82;34.83
46638;BME280;32365;46.938;7.390;2023-05-03T15:31:48;95487.78;;;23.90;36.40
46638;BME280;32365;46.938;7.390;2023-05-03T15:34:15;95491.66;;;23.66;36.44
46638;BME280;32365;46.938;7.390;2023-05-03T15:36:41;95488.81;;;23.04;36.13
46638;BME280;32365;46.938;7.390;2023-05-03T15:39:07;95499.44;;;22.13;39.09
46638;BME280;32365;46.938;7.390;2023-05-03T15:41:34;95495.97;;;23.04;37.02
46638;BME280;32365;46.938;7.390;2023-05-03T15:44:00;95487.09;;;22.00;37.47
46638;BME280;32365;46.938;7.390;2023-05-03T15:46:29;95484.63;;;21.39;39.16
46638;BME280;32365;46.938;7.390;2023-05-03T15:48:57;95495.72;;;21.78;39.47
46638;BME280;32365;46.938;7.390;2023-05-03T15:51:24;95493.81;;;22.06;38.64
46638;BME280;32365;46.938;7.390;2023-05-03T15:53:52;95496.25;;;22.03;38.51
46638;BME280;32365;46.938;7.390;2023-05-03T15:56:18;95488.84;;;22.50;36.88
46638;BME280;32365;46.938;7.390;2023-05-03T15:58:45;95490.00;;;21.06;40.50
46638;BME280;32365;46.938;7.390;2023-05-03T16:01:12;95502.19;;;21.02;40.11
46638;BME280;32365;46.938;7.390;2023-05-03T16:03:38;95493.69;;;20.77;41.57
46638;BME280;32365;46.938;7.390;2023-05-03T16:06:07;95490.31;;;20.24;42.71
46638;BME280;32365;46.938;7.390;2023-05-03T16:08:33;95490.03;;;19.44;43.79
46638;BME280;32365;46.938;7.390;2023-05-03T16:11:00;95491.84;;;19.00;45.89
46638;BME280;32365;46.938;7.390;2023-05-03T16:13:26;95485.34;;;19.41;45.75
46638;BME280;32365;46.938;7.390;2023-05-03T16:15:54;95489.06;;;19.59;44.30
46638;BME280;32365;46.938;7.390;2023-05-03T16:18:21;95501.50;;;19.05;46.22
46638;BME280;32365;46.938;7.390;2023-05-03T16:20:48;95499.81;;;19.38;45.30
46638;BME280;32365;46.938;7.390;2023-05-03T16:23:16;95504.47;;;18.93;46.83
46638;BME280;32365;46.938;7.390;2023-05-03T16:25:43;95502.47;;;19.58;44.67
46638;BME280;32365;46.938;7.390;2023-05-03T16:28:09;95513.75;;;19.58;44.12
46638;BME280;32365;46.938;7.390;2023-05-03T16:30:36;95513.09;;;18.99;46.08
46638;BME280;32365;46.938;7.390;2023-05-03T16:33:02;95510.41;;;19.52;44.92
46638;BME280;32365;46.938;7.390;2023-05-03T16:35:29;95514.09;;;19.51;44.84
46638;BME280;32365;46.938;7.390;2023-05-03T16:37:56;95506.69;;;18.81;45.29
46638;BME280;32365;46.938;7.390;2023-05-03T16:40:23;95509.97;;;18.67;45.13
46638;BME280;32365;46.938;7.390;2023-05-03T16:42:50;95520.22;;;18.29;47.29
46638;BME280;32365;46.938;7.390;2023-05-03T16:45:17;95510.94;;;18.07;48.14
46638;BME280;32365;46.938;7.390;2023-05-03T16:47:45;95508.91;;;17.89;48.95
46638;BME280;32365;46.938;7.390;2023-05-03T16:50:12;95510.84;;;17.67;49.31
46638;BME280;32365;46.938;7.390;2023-05-03T16:52:40;95516.22;;;17.87;49.15
46638;BME280;32365;46.938;7.390;2023-05-03T16:55:08;95511.91;;;17.66;50.46
46638;BME280;32365;46.938;7.390;2023-05-03T16:57:36;95518.16;;;17.70;49.52
46638;BME280;32365;46.938;7.390;2023-05-03T17:00:04;95505.66;;;17.57;49.16
46638;BME280;32365;46.938;7.390;2023-05-03T17:02:33;95513.06;;;17.39;50.53
46638;BME280;32365;46.938;7.390;2023-05-03T17:04:59;95507.63;;;17.26;50.29
46638;BME280;32365;46.938;7.390;2023-05-03T17:07:26;95501.59;;;17.25;51.46
46638;BME280;32365;46.938;7.390;2023-05-03T17:09:52;95501.44;;;17.61;50.23
46638;BME280;32365;46.938;7.390;2023-05-03T17:12:19;95503.72;;;17.18;50.50
46638;BME280;32365;46.938;7.390;2023-05-03T17:14:47;95509.50;;;16.89;51.75
46638;BME280;32365;46.938;7.390;2023-05-03T17:17:14;95507.13;;;16.92;52.23
46638;BME280;32365;46.938;7.390;2023-05-03T17:19:40;95513.44;;;16.97;52.66
46638;BME280;32365;46.938;7.390;2023-05-03T17:22:07;95508.97;;;16.87;52.42
46638;BME280;32365;46.938;7.390;2023-05-03T17:24:33;95506.03;;;17.30;51.41
46638;BME280;32365;46.938;7.390;2023-05-03T17:27:00;95518.91;;;17.05;52.40
46638;BME280;32365;46.938;7.390;2023-05-03T17:29:27;95511.06;;;16.85;52.79
46638;BME280;32365;46.938;7.390;2023-05-03T17:31:55;95514.22;;;17.02;52.16
46638;BME280;32365;46.938;7.390;2023-05-03T17:34:22;95511.34;;;16.99;52.00
46638;BME280;32365;46.938;7.390;2023-05-03T17:36:49;95510.78;;;16.91;52.95
46638;BME280;32365;46.938;7.390;2023-05-03T17:39:15;95513.16;;;16.88;52.61
46638;BME280;32365;46.938;7.390;2023-05-03T17:41:42;95516.56;;;16.68;53.91
46638;BME280;32365;46.938;7.390;2023-05-03T17:44:08;95517.38;;;16.58;54.21
46638;BME280;32365;46.938;7.390;2023-05-03T17:46:35;95523.09;;;16.50;53.99
46638;BME280;32365;46.938;7.390;2023-05-03T17:49:03;95528.31;;;16.91;53.58
46638;BME280;32365;46.938;7.390;2023-05-03T17:51:30;95527.03;;;16.31;55.03
46638;BME280;32365;46.938;7.390;2023-05-03T17:53:57;95527.06;;;16.52;54.58
46638;BME280;32365;46.938;7.390;2023-05-03T17:56:23;95535.91;;;16.56;55.22
46638;BME280;32365;46.938;7.390;2023-05-03T17:58:50;95533.81;;;16.33;53.67
46638;BME280;32365;46.938;7.390;2023-05-03T18:01:16;95535.66;;;16.22;54.92
46638;BME280;32365;46.938;7.390;2023-05-03T18:03:43;95536.94;;;16.24;55.89
46638;BME280;32365;46.938;7.390;2023-05-03T18:06:12;95537.75;;;16.40;54.85
46638;BME280;32365;46.938;7.390;2023-05-03T18:08:38;95540.84;;;16.11;56.89
46638;BME280;32365;46.938;7.390;2023-05-03T18:11:05;95540.25;;;15.89;56.48
46638;BME280;32365;46.938;7.390;2023-05-03T18:13:32;95533.22;;;15.89;56.50